Time;durP1;ratioP1;P1;durP2;ratioP2;P2;SDS_P1;SDS_P2;PMS_P1;PMS_P2;Temp;Humidity;BMP_temperature;BMP_pressure;BME280_temperature;BME280_humidity;BME280_pressure;Samples;Min_cycle;Max_cycle;Signal;HPM_P1;HPM_P2
2023/05/03 04:39:25;;;;;;;19.80;8.70;;;;;;;7.67;87.01;101149.25;109728;1264;22444;-56
2023/05/03 04:41:54;;;;;;;23.30;9.10;;;;;;;7.74;87.14;101151.52;109959;1275;22385;-57
2023/05/03 04:44:21;;;;;;;27.00;8.80;;;;;;;7.86;87.37;101152.67;110013;1272;23090;-47
2023/05/03 04:46:48;;;;;;;25.30;9.40;;;;;;;7.99;87.57;101147.95;109955;1275;22271;-57
2023/05/03 04:49:17;;;;;;;20.00;8.30;;;;;;;8.15;87.60;101148.35;108440;1279;23097;-56
2023/05/03 04:51:44;;;;;;;21.90;10.30;;;;;;;8.30;86.26;101149.39;109664;1274;22562;-47
2023/05/03 04:54:11;;;;;;;23.00;9.70;;;;;;;8.42;85.38;101150.39;110002;1272;22397;-47
2023/05/03 04:56:39;;;;;;;16.90;9.40;;;;;;;8.53;84.68;101149.40;108746;1278;25657;-47
2023/05/03 04:59:10;;;;;;;16.40;9.40;;;;;;;8.66;84.23;101147.60;108703;1272;22565;-48
2023/05/03 05:01:37;;;;;;;19.60;9.00;;;;;;;8.79;83.88;101147.01;108250;1272;24333;-48
2023/05/03 05:04:06;;;;;;;21.00;9.50;;;;;;;8.94;83.53;101145.73;108243;1279;22520;-47
2023/05/03 05:06:41;;;;;;;18.50;9.00;;;;;;;9.13;82.81;101143.84;107535;1273;22387;-47
2023/05/03 05:09:23;;;;;;;21.70;8.90;;;;;;;9.32;81.85;101144.90;109023;1275;23306;-48
2023/05/03 05:11:52;;;;;;;21.50;10.50;;;;;;;9.52;81.24;101143.54;108370;1275;23042;-57
2023/05/03 05:14:24;;;;;;;32.00;11.00;;;;;;;9.72;81.23;101146.67;109798;1273;22411;-57
2023/05/03 05:16:51;;;;;;;19.70;9.70;;;;;;;9.90;79.73;101144.87;109749;1276;23215;-47
2023/05/03 05:19:19;;;;;;;25.50;12.20;;;;;;;10.05;77.11;101141.98;109795;1272;22491;-47
2023/05/03 05:21:47;;;;;;;22.00;10.50;;;;;;;10.17;77.36;101142.15;109708;1273;22388;-48
2023/05/03 05:24:14;;;;;;;17.50;8.30;;;;;;;10.32;77.21;101139.45;109711;1273;22208;-47
2023/05/03 05:26:44;;;;;;;19.40;8.40;;;;;;;10.51;75.30;101137.45;109324;1274;215444;-48
2023/05/03 05:29:18;;;;;;;17.70;7.10;;;;;;;10.69;72.74;101138.37;109427;1275;22419;-57
2023/05/03 05:32:39;;;;;;;16.10;8.30;;;;;;;10.87;69.87;101140.88;109117;1271;23340;-56
2023/05/03 05:36:45;;;;;;;14.40;7.20;;;;;;;11.09;67.86;101142.88;108901;1273;22405;-56
2023/05/03 05:44:12;;;;;;;22.10;7.80;;;;;;;11.46;66.18;101142.23;109011;1273;22448;-57
2023/05/03 05:47:52;;;;;;;15.40;6.30;;;;;;;11.69;63.23;101146.11;109792;1273;23130;-48
2023/05/03 05:50:56;;;;;;;10.40;6.20;;;;;;;11.86;62.35;101139.81;108837;1273;22208;-57
2023/05/03 05:53:24;;;;;;;9.20;6.20;;;;;;;11.97;61.63;101142.53;109693;1278;22490;-56
2023/05/03 05:55:57;;;;;;;10.70;6.90;;;;;;;12.08;61.71;101141.39;109059;1273;23771;-58
2023/05/03 05:58:32;;;;;;;13.70;6.30;;;;;;;12.21;61.41;101145.33;109496;1273;23575;-56
2023/05/03 06:01:00;;;;;;;11.90;5.80;;;;;;;12.35;60.37;101146.10;108523;1273;22930;-55
2023/05/03 06:03:32;;;;;;;16.40;6.50;;;;;;;12.48;59.65;101144.97;108582;1273;22499;-46
2023/05/03 06:06:06;;;;;;;15.70;5.20;;;;;;;12.59;59.21;101145.20;107655;1267;22206;-55
2023/05/03 06:08:38;;;;;;;12.80;5.40;;;;;;;12.69;59.80;101145.94;108819;1276;22529;-55
2023/05/03 06:11:17;;;;;;;10.80;5.70;;;;;;;12.82;58.71;101145.14;108171;1276;22532;-48
2023/05/03 06:13:52;;;;;;;11.90;5.10;;;;;;;12.94;57.48;101139.76;108818;1273;22217;-57
2023/05/03 06:16:32;;;;;;;14.20;4.60;;;;;;;13.05;57.51;101134.71;108326;1271;22526;-47
2023/05/03 06:19:11;;;;;;;14.20;4.30;;;;;;;13.17;57.47;101137.56;108519;1273;22806;-48
2023/05/03 06:21:40;;;;;;;9.50;3.30;;;;;;;13.33;56.87;101130.43;108830;1273;23244;-55
2023/05/03 06:24:19;;;;;;;14.20;3.30;;;;;;;13.49;56.01;101131.87;108874;1273;22468;-58
2023/05/03 06:26:50;;;;;;;7.70;3.30;;;;;;;13.65;56.38;101136.09;109173;1279;22594;-59
2023/05/03 06:29:17;;;;;;;17.50;3.40;;;;;;;13.84;56.40;101131.17;109719;1259;22295;-58
2023/05/03 06:32:03;;;;;;;5.90;3.30;;;;;;;14.04;56.54;101125.20;108614;1279;22418;-57
2023/05/03 06:34:38;;;;;;;6.40;3.60;;;;;;;14.27;55.96;101120.79;109642;1273;22447;-49
2023/05/03 06:40:12;;;;;;;3.30;2.00;;;;;;;14.57;53.00;101121.97;109010;1275;22701;-58
2023/05/03 06:42:39;;;;;;;9.90;2.40;;;;;;;14.70;52.80;101124.91;109726;1276;22333;-46
2023/05/03 06:45:28;;;;;;;5.40;2.10;;;;;;;14.84;52.13;101124.84;109298;1279;23038;-48
2023/05/03 06:48:08;;;;;;;4.10;2.00;;;;;;;14.97;51.40;101124.79;109249;1276;23954;-48
2023/05/03 06:50:37;;;;;;;8.00;2.60;;;;;;;15.05;50.98;101125.98;109188;1275;23315;-49
2023/05/03 06:53:04;;;;;;;4.80;2.20;;;;;;;15.13;50.59;101127.34;109169;1273;22342;-50
2023/05/03 06:55:31;;;;;;;4.90;2.20;;;;;;;15.23;50.03;101127.46;109828;1275;22380;-57
2023/05/03 06:57:58;;;;;;;3.70;1.90;;;;;;;15.33;50.07;101123.52;109670;1273;23065;-48
2023/05/03 07:00:26;;;;;;;3.70;1.70;;;;;;;15.45;49.33;101118.54;109317;1273;22365;-57
2023/05/03 07:02:55;;;;;;;5.80;1.80;;;;;;;15.57;48.82;101120.73;109165;1273;22408;-59
2023/05/03 07:05:22;;;;;;;4.90;2.10;;;;;;;15.69;49.17;101118.73;109338;1277;22309;-58
2023/05/03 07:07:49;;;;;;;4.90;2.40;;;;;;;15.80;48.74;101117.23;109009;1273;23528;-58
2023/05/03 07:10:16;;;;;;;4.20;2.00;;;;;;;15.90;48.42;101120.30;109525;1274;22409;-48
2023/05/03 07:13:24;;;;;;;1.90;1.70;;;;;;;15.98;48.72;101121.47;109193;1275;23047;-58
2023/05/03 07:16:01;;;;;;;4.00;2.10;;;;;;;16.12;48.60;101123.81;109094;1273;23473;-58
2023/05/03 07:18:29;;;;;;;5.10;1.50;;;;;;;16.24;47.50;101119.81;109673;1276;22332;-57
2023/05/03 07:20:56;;;;;;;5.60;2.10;;;;;;;16.30;46.58;101121.88;109382;1276;22539;-47
2023/05/03 07:23:25;;;;;;;4.50;1.70;;;;;;;16.35;46.64;101119.70;109765;1265;23533;-57
2023/05/03 07:25:56;;;;;;;8.40;1.80;;;;;;;16.47;46.07;101119.39;109484;1279;22520;-47
2023/05/03 07:28:32;;;;;;;2.20;2.00;;;;;;;16.61;45.54;101119.23;109025;1274;22313;-48
2023/05/03 07:30:59;;;;;;;13.40;3.70;;;;;;;16.73;44.49;101115.41;109226;1273;22423;-47
2023/05/03 07:33:26;;;;;;;8.10;2.60;;;;;;;16.85;45.14;101109.81;109159;1278;23100;-47
2023/05/03 07:35:53;;;;;;;4.50;2.10;;;;;;;16.99;43.92;101108.56;109286;1278;22292;-47
2023/05/03 07:38:20;;;;;;;4.70;2.00;;;;;;;17.12;43.21;101109.27;108582;1276;23028;-49
2023/05/03 07:40:51;;;;;;;1.60;1.50;;;;;;;17.21;42.41;101106.84;109447;1278;22333;-59
2023/05/03 07:43:22;;;;;;;3.20;1.50;;;;;;;17.31;41.79;101108.81;109502;1273;22457;-57
2023/05/03 07:45:50;;;;;;;6.80;2.60;;;;;;;17.36;42.04;101110.69;109167;1275;23207;-47
2023/05/03 07:48:17;;;;;;;8.40;2.40;;;;;;;17.43;41.64;101109.16;109835;1279;22344;-57
2023/05/03 07:50:45;;;;;;;3.60;1.90;;;;;;;17.52;42.08;101109.72;108261;1273;22434;-59
2023/05/03 07:53:12;;;;;;;4.00;1.80;;;;;;;17.61;40.04;101108.89;109172;1275;22879;-48
2023/05/03 07:55:43;;;;;;;5.20;2.00;;;;;;;17.68;40.82;101113.88;109442;1273;22540;-47
2023/05/03 07:58:14;;;;;;;8.50;2.00;;;;;;;17.78;40.75;101107.23;109067;1274;22348;-47
2023/05/03 08:00:53;;;;;;;12.70;3.10;;;;;;;17.90;40.52;101109.13;109435;1275;22859;-48
2023/05/03 08:03:32;;;;;;;4.20;2.50;;;;;;;18.03;39.63;101104.85;108366;1276;22793;-47
2023/05/03 08:07:11;;;;;;;3.30;1.80;;;;;;;18.13;38.16;101116.48;109346;1272;22423;-48
2023/05/03 08:11:11;;;;;;;4.70;1.60;;;;;;;18.17;37.56;101110.41;109264;1278;22834;-57
2023/05/03 08:14:24;;;;;;;7.60;1.90;;;;;;;18.26;37.84;101112.73;109593;1269;22320;-57
2023/05/03 08:17:28;;;;;;;5.80;2.10;;;;;;;18.32;37.56;101106.25;109170;1276;22529;-60
2023/05/03 08:20:15;;;;;;;2.40;1.40;;;;;;;18.43;37.56;101116.47;109695;1273;23198;-58
2023/05/03 08:22:44;;;;;;;8.20;1.80;;;;;;;18.51;37.74;101114.86;109496;1276;22386;-48
2023/05/03 08:25:11;;;;;;;2.20;1.80;;;;;;;18.57;37.29;101108.58;109852;1279;22252;-47
2023/05/03 08:27:41;;;;;;;2.60;1.70;;;;;;;18.63;36.80;101111.47;109340;1278;22328;-58
2023/05/03 08:30:12;;;;;;;9.10;2.50;;;;;;;18.66;37.52;101106.83;109058;1276;22538;-58
2023/05/03 08:32:41;;;;;;;5.10;2.30;;;;;;;18.73;36.39;101109.69;108758;1272;22524;-47
2023/05/03 08:35:14;;;;;;;6.00;1.30;;;;;;;18.74;37.16;101110.22;109124;1273;22864;-49
2023/05/03 08:37:44;;;;;;;2.50;1.30;;;;;;;18.75;36.99;101101.35;108730;1273;21944;-57
2023/05/03 08:40:16;;;;;;;4.10;1.70;;;;;;;18.84;36.92;101100.27;109889;1273;23013;-49
2023/05/03 08:42:44;;;;;;;4.80;1.50;;;;;;;18.96;36.16;101092.42;109177;1273;22748;-58
2023/05/03 08:45:18;;;;;;;3.90;1.60;;;;;;;19.10;35.69;101099.00;108920;1256;22551;-47
2023/05/03 08:47:56;;;;;;;11.30;1.50;;;;;;;19.24;35.92;101101.51;108808;1273;22406;-56
2023/05/03 08:50:24;;;;;;;4.70;1.60;;;;;;;19.34;35.13;101109.41;109238;1278;22403;-46
2023/05/03 08:52:51;;;;;;;2.20;1.20;;;;;;;19.34;34.70;101097.20;108202;1278;23764;-58
2023/05/03 08:55:18;;;;;;;10.90;1.40;;;;;;;19.31;34.63;101098.16;107837;1279;25715;-47
2023/05/03 08:57:45;;;;;;;3.20;1.40;;;;;;;19.31;34.45;101094.11;109348;1273;22356;-46
2023/05/03 09:00:13;;;;;;;3.90;1.20;;;;;;;19.35;34.52;101100.90;108786;1279;22528;-57
2023/05/03 09:02:40;;;;;;;1.90;1.10;;;;;;;19.43;34.55;101099.13;109641;1280;23320;-47
2023/05/03 09:05:14;;;;;;;5.60;1.60;;;;;;;19.45;35.20;101093.94;109632;1273;22997;-48
2023/05/03 09:08:02;;;;;;;3.00;1.40;;;;;;;19.51;36.07;101091.30;109459;1276;22463;-46
2023/05/03 09:10:35;;;;;;;1.70;1.30;;;;;;;19.62;35.03;101087.36;109330;1278;22525;-49
2023/05/03 09:13:02;;;;;;;6.00;1.00;;;;;;;19.67;35.30;101085.48;109494;1273;23150;-48
2023/05/03 09:15:52;;;;;;;4.70;1.40;;;;;;;19.70;34.25;101088.93;109153;1273;22198;-48
2023/05/03 09:18:31;;;;;;;3.80;1.40;;;;;;;19.69;34.53;101077.99;109561;1278;22760;-47
2023/05/03 09:20:58;;;;;;;4.30;1.40;;;;;;;19.67;34.77;101074.88;109651;1273;22854;-47
2023/05/03 09:23:27;;;;;;;2.00;1.20;;;;;;;19.72;35.39;101074.91;109740;1273;22419;-56
2023/05/03 09:25:54;;;;;;;2.40;1.80;;;;;;;19.77;34.48;101074.96;109631;1273;22611;-58
2023/05/03 09:28:22;;;;;;;10.60;1.80;;;;;;;19.75;33.76;101069.89;109717;1275;22460;-46
2023/05/03 09:31:03;;;;;;;2.50;1.20;;;;;;;19.73;34.43;101068.88;109539;1273;23046;-57
2023/05/03 09:33:30;;;;;;;4.40;1.30;;;;;;;19.76;34.17;101076.39;109388;1265;22477;-58
2023/05/03 09:35:58;;;;;;;3.60;1.60;;;;;;;19.76;34.77;101068.95;109157;1273;22393;-49
2023/05/03 09:38:41;;;;;;;12.90;1.70;;;;;;;19.75;34.68;101067.77;109427;1275;22499;-49
2023/05/03 09:41:56;;;;;;;5.60;1.20;;;;;;;19.75;34.23;101055.90;108640;1275;23586;-48
2023/05/03 09:49:26;;;;;;;2.40;1.30;;;;;;;19.68;31.98;101057.14;109675;1271;23186;-59
2023/05/03 09:56:51;;;;;;;2.50;1.10;;;;;;;19.66;34.21;101060.02;108834;1275;24037;-49
2023/05/03 10:00:02;;;;;;;4.50;0.90;;;;;;;19.74;34.01;101055.38;109532;1277;22787;-49
2023/05/03 10:02:44;;;;;;;4.80;1.40;;;;;;;19.83;33.93;101056.55;109579;1276;22809;-48
2023/05/03 10:05:23;;;;;;;3.80;1.10;;;;;;;19.93;33.48;101051.36;109147;1273;22883;-49
2023/05/03 10:07:50;;;;;;;4.10;1.00;;;;;;;20.03;32.46;101052.32;109311;1276;22530;-49
2023/05/03 10:10:17;;;;;;;0.90;0.90;;;;;;;20.09;33.72;101050.38;109490;1279;22940;-59
2023/05/03 10:12:45;;;;;;;5.50;1.30;;;;;;;20.20;35.03;101049.37;109524;1276;22484;-48
2023/05/03 10:15:12;;;;;;;6.90;1.70;;;;;;;20.29;33.47;101051.95;109412;1278;22842;-50
2023/05/03 10:17:40;;;;;;;4.20;1.20;;;;;;;20.28;33.58;101050.02;109619;1273;22705;-48
2023/05/03 10:20:36;;;;;;;3.70;1.30;;;;;;;20.31;32.50;101056.68;109421;1279;22230;-60
2023/05/03 10:23:06;;;;;;;4.30;2.20;;;;;;;20.37;32.41;101052.79;109598;1273;22447;-49
2023/05/03 10:25:34;;;;;;;5.90;1.30;;;;;;;20.51;33.57;101049.77;109719;1279;22806;-49
2023/05/03 10:28:06;;;;;;;6.80;1.40;;;;;;;20.75;34.15;101043.71;109762;1279;22775;-48
2023/05/03 10:30:34;;;;;;;3.00;1.40;;;;;;;21.10;33.82;101046.17;109660;1273;22948;-48
2023/05/03 10:33:10;;;;;;;9.50;1.20;;;;;;;21.39;31.49;101043.16;109668;1279;22828;-48
2023/05/03 10:35:59;;;;;;;3.40;1.30;;;;;;;21.56;30.83;101043.64;109617;1277;22821;-49
2023/05/03 10:38:27;;;;;;;2.60;1.00;;;;;;;21.72;29.56;101037.43;109791;1276;22848;-60
2023/05/03 10:40:55;;;;;;;1.40;1.10;;;;;;;21.91;30.38;101027.71;107483;1279;22229;-48
2023/05/03 10:43:31;;;;;;;4.20;1.50;;;;;;;22.21;29.41;101029.67;109657;1279;22407;-49
2023/05/03 10:46:02;;;;;;;2.40;1.60;;;;;;;22.50;29.70;101031.27;109034;1273;23027;-60
2023/05/03 10:48:33;;;;;;;1.30;1.20;;;;;;;22.81;29.53;101021.73;109612;1279;22998;-48
2023/05/03 10:51:38;;;;;;;3.70;1.10;;;;;;;23.30;29.79;101016.02;109867;1279;23093;-49
2023/05/03 10:54:06;;;;;;;3.20;1.50;;;;;;;23.91;28.43;101019.85;109755;1276;22520;-59
2023/05/03 10:56:33;;;;;;;2.70;1.40;;;;;;;24.13;27.81;101020.84;108547;1276;22356;-58
2023/05/03 10:59:00;;;;;;;4.30;1.30;;;;;;;24.17;27.81;101026.18;109722;1279;22221;-59
2023/05/03 11:01:27;;;;;;;5.90;2.10;;;;;;;24.24;27.59;101021.26;109830;1279;22377;-60
2023/05/03 11:04:07;;;;;;;3.70;2.00;;;;;;;24.36;27.90;101016.76;108516;1279;22165;-49
2023/05/03 11:06:35;;;;;;;3.80;1.10;;;;;;;24.51;27.51;101011.09;109485;1276;22591;-49
2023/05/03 11:09:05;;;;;;;4.20;2.00;;;;;;;24.57;28.11;101011.17;109619;1273;22425;-50
2023/05/03 11:11:33;;;;;;;10.40;1.10;;;;;;;24.61;27.08;101013.50;109833;1279;22365;-49
2023/05/03 11:14:00;;;;;;;2.10;1.30;;;;;;;24.50;26.98;101009.55;109185;1279;22618;-59
2023/05/03 11:16:27;;;;;;;4.30;1.40;;;;;;;24.40;27.34;101008.60;109846;1273;22420;-59
2023/05/03 11:18:55;;;;;;;5.60;1.60;;;;;;;24.24;27.35;100999.51;109828;1279;23062;-60
2023/05/03 11:21:22;;;;;;;14.20;1.70;;;;;;;24.05;28.04;101003.56;109779;1272;22329;-60
2023/05/03 11:23:49;;;;;;;4.10;1.20;;;;;;;23.84;27.78;101005.01;109491;1278;22315;-49
2023/05/03 11:26:16;;;;;;;10.30;1.40;;;;;;;23.59;27.82;101006.10;109789;1280;22205;-49
2023/05/03 11:28:44;;;;;;;5.00;1.30;;;;;;;23.29;28.15;101010.36;109778;1280;22309;-49
2023/05/03 11:31:11;;;;;;;4.40;0.80;;;;;;;22.98;28.38;101002.59;109791;1280;23330;-50
2023/05/03 11:33:38;;;;;;;3.30;1.10;;;;;;;22.76;29.33;101000.91;109793;1280;22670;-49
2023/05/03 11:36:07;;;;;;;5.90;1.30;;;;;;;22.73;29.69;101008.14;109800;1280;22932;-58
2023/05/03 11:38:35;;;;;;;3.10;1.00;;;;;;;22.70;28.30;101005.25;109889;1280;23158;-60
2023/05/03 11:41:13;;;;;;;5.30;1.00;;;;;;;22.62;29.51;101002.92;109862;1280;22198;-50
2023/05/03 11:43:41;;;;;;;7.50;1.10;;;;;;;22.48;29.16;100999.15;109850;1273;22620;-50
2023/05/03 11:46:08;;;;;;;6.80;1.70;;;;;;;22.28;29.25;101001.17;109877;1278;22405;-60
2023/05/03 11:48:36;;;;;;;9.20;1.20;;;;;;;22.06;29.84;100998.40;109875;1279;22213;-49
2023/05/03 11:51:08;;;;;;;2.80;1.10;;;;;;;21.92;30.30;101001.04;109788;1279;22744;-50
2023/05/03 11:53:35;;;;;;;2.80;2.00;;;;;;;21.85;30.07;100997.39;109837;1281;22230;-50
2023/05/03 11:56:02;;;;;;;3.30;1.30;;;;;;;21.79;30.05;100998.66;109884;1280;22541;-59
2023/05/03 11:58:29;;;;;;;3.20;1.80;;;;;;;21.76;30.10;100991.11;109869;1281;22975;-59
2023/05/03 12:00:56;;;;;;;3.00;1.30;;;;;;;21.76;30.29;100997.17;109784;1280;22112;-49
2023/05/03 12:03:34;;;;;;;1.20;1.10;;;;;;;21.73;30.53;100987.85;109798;1280;22159;-50
2023/05/03 12:06:02;;;;;;;6.90;1.30;;;;;;;21.77;31.31;100985.05;107690;1280;24767;-49
2023/05/03 12:08:31;;;;;;;5.90;1.40;;;;;;;21.88;30.93;100984.84;109996;1280;22370;-58
2023/05/03 12:11:05;;;;;;;3.40;1.30;;;;;;;21.95;30.28;100979.98;109897;1280;22183;-50
2023/05/03 12:13:36;;;;;;;;;;;;;;;21.95;30.67;100974.80;109934;1280;22505;-49
2023/05/03 12:16:07;;;;;;;3.30;1.00;;;;;;;21.95;31.15;100975.52;109939;1280;22483;-49
2023/05/03 12:18:57;;;;;;;1.90;1.00;;;;;;;22.02;31.75;100976.34;109880;1281;22279;-59
2023/05/03 12:21:43;;;;;;;4.10;1.20;;;;;;;22.10;30.82;100974.48;109897;1280;22285;-48
2023/05/03 12:24:30;;;;;;;4.90;1.20;;;;;;;22.17;29.98;100974.95;109889;1276;22329;-58
2023/05/03 12:27:00;;;;;;;5.80;1.10;;;;;;;22.14;29.74;100964.20;109870;1280;22844;-59
